sensor_id;sensor_type;location;lat;lon;timestamp;P1;durP1;ratioP1;P2;durP2;ratioP2
64826;SDS011;51265;53.972;12.286;2022-12-07T00:01:50;14.35;;;6.47;;
64826;SDS011;51265;53.972;12.286;2022-12-07T00:04:17;13.18;;;6.80;;
64826;SDS011;51265;53.972;12.286;2022-12-07T00:06:44;15.18;;;7.40;;
64826;SDS011;51265;53.972;12.286;2022-12-07T00:09:15;13.48;;;7.32;;
64826;SDS011;51265;53.972;12.286;2022-12-07T00:11:42;15.90;;;7.35;;
64826;SDS011;51265;53.972;12.286;2022-12-07T00:14:12;13.77;;;7.28;;
64826;SDS011;51265;53.972;12.286;2022-12-07T00:16:39;14.50;;;6.78;;
64826;SDS011;51265;53.972;12.286;2022-12-07T00:19:06;14.75;;;7.05;;
64826;SDS011;51265;53.972;12.286;2022-12-07T00:21:32;13.18;;;7.13;;
64826;SDS011;51265;53.972;12.286;2022-12-07T00:24:01;16.00;;;7.30;;
64826;SDS011;51265;53.972;12.286;2022-12-07T00:26:29;14.75;;;7.32;;
64826;SDS011;51265;53.972;12.286;2022-12-07T00:29:00;14.77;;;6.88;;
64826;SDS011;51265;53.972;12.286;2022-12-07T00:31:30;16.70;;;7.40;;
64826;SDS011;51265;53.972;12.286;2022-12-07T00:33:59;13.60;;;6.88;;
64826;SDS011;51265;53.972;12.286;2022-12-07T00:36:25;15.80;;;7.45;;
64826;SDS011;51265;53.972;12.286;2022-12-07T00:38:51;17.88;;;6.75;;
64826;SDS011;51265;53.972;12.286;2022-12-07T00:41:37;15.85;;;7.45;;
64826;SDS011;51265;53.972;12.286;2022-12-07T00:44:03;15.57;;;7.47;;
64826;SDS011;51265;53.972;12.286;2022-12-07T00:46:29;14.85;;;7.25;;
64826;SDS011;51265;53.972;12.286;2022-12-07T00:48:55;16.55;;;7.60;;
64826;SDS011;51265;53.972;12.286;2022-12-07T00:51:22;15.27;;;7.30;;
64826;SDS011;51265;53.972;12.286;2022-12-07T00:53:49;15.68;;;7.70;;
64826;SDS011;51265;53.972;12.286;2022-12-07T00:56:21;14.05;;;7.28;;
64826;SDS011;51265;53.972;12.286;2022-12-07T00:58:49;17.23;;;8.10;;
64826;SDS011;51265;53.972;12.286;2022-12-07T01:01:17;16.55;;;7.90;;
64826;SDS011;51265;53.972;12.286;2022-12-07T01:03:43;15.15;;;7.03;;
64826;SDS011;51265;53.972;12.286;2022-12-07T01:06:08;17.88;;;8.68;;
64826;SDS011;51265;53.972;12.286;2022-12-07T01:08:34;17.85;;;8.25;;
64826;SDS011;51265;53.972;12.286;2022-12-07T01:11:01;18.67;;;7.65;;
64826;SDS011;51265;53.972;12.286;2022-12-07T01:13:33;19.00;;;8.25;;
64826;SDS011;51265;53.972;12.286;2022-12-07T01:16:01;16.85;;;7.57;;
64826;SDS011;51265;53.972;12.286;2022-12-07T01:18:37;18.17;;;7.68;;
64826;SDS011;51265;53.972;12.286;2022-12-07T01:21:17;17.60;;;7.28;;
64826;SDS011;51265;53.972;12.286;2022-12-07T01:23:46;14.65;;;7.38;;
64826;SDS011;51265;53.972;12.286;2022-12-07T01:26:14;16.75;;;7.03;;
64826;SDS011;51265;53.972;12.286;2022-12-07T01:28:42;18.48;;;7.45;;
64826;SDS011;51265;53.972;12.286;2022-12-07T01:31:18;18.00;;;8.05;;
64826;SDS011;51265;53.972;12.286;2022-12-07T01:33:47;16.90;;;7.47;;
64826;SDS011;51265;53.972;12.286;2022-12-07T01:36:16;19.25;;;8.27;;
64826;SDS011;51265;53.972;12.286;2022-12-07T01:38:43;20.10;;;8.15;;
64826;SDS011;51265;53.972;12.286;2022-12-07T01:41:10;18.15;;;7.47;;
64826;SDS011;51265;53.972;12.286;2022-12-07T01:43:36;27.85;;;8.07;;
64826;SDS011;51265;53.972;12.286;2022-12-07T01:46:03;22.95;;;8.10;;
64826;SDS011;51265;53.972;12.286;2022-12-07T01:48:32;22.00;;;7.93;;
64826;SDS011;51265;53.972;12.286;2022-12-07T01:51:10;15.50;;;7.80;;
64826;SDS011;51265;53.972;12.286;2022-12-07T01:53:40;15.25;;;7.43;;
64826;SDS011;51265;53.972;12.286;2022-12-07T01:56:09;15.90;;;7.72;;
64826;SDS011;51265;53.972;12.286;2022-12-07T01:58:38;15.30;;;7.43;;
64826;SDS011;51265;53.972;12.286;2022-12-07T02:01:03;18.58;;;7.80;;
64826;SDS011;51265;53.972;12.286;2022-12-07T02:03:40;14.38;;;7.40;;
64826;SDS011;51265;53.972;12.286;2022-12-07T02:06:09;22.33;;;8.05;;
64826;SDS011;51265;53.972;12.286;2022-12-07T02:08:37;16.95;;;7.53;;
64826;SDS011;51265;53.972;12.286;2022-12-07T02:11:04;20.17;;;7.88;;
64826;SDS011;51265;53.972;12.286;2022-12-07T02:13:33;15.35;;;7.32;;
64826;SDS011;51265;53.972;12.286;2022-12-07T02:21:46;20.17;;;7.35;;
64826;SDS011;51265;53.972;12.286;2022-12-07T02:24:24;22.45;;;8.30;;
64826;SDS011;51265;53.972;12.286;2022-12-07T02:29:36;14.73;;;7.10;;
64826;SDS011;51265;53.972;12.286;2022-12-07T02:32:24;22.10;;;8.40;;
64826;SDS011;51265;53.972;12.286;2022-12-07T02:35:21;18.58;;;8.02;;
64826;SDS011;51265;53.972;12.286;2022-12-07T02:40:43;16.80;;;8.63;;
64826;SDS011;51265;53.972;12.286;2022-12-07T02:43:23;19.23;;;8.95;;
64826;SDS011;51265;53.972;12.286;2022-12-07T02:48:18;18.05;;;8.10;;
64826;SDS011;51265;53.972;12.286;2022-12-07T02:50:48;27.33;;;9.35;;
64826;SDS011;51265;53.972;12.286;2022-12-07T02:56:26;28.25;;;9.85;;
64826;SDS011;51265;53.972;12.286;2022-12-07T02:59:33;22.60;;;9.82;;
64826;SDS011;51265;53.972;12.286;2022-12-07T03:07:55;26.13;;;10.73;;
64826;SDS011;51265;53.972;12.286;2022-12-07T03:10:35;43.15;;;12.30;;
64826;SDS011;51265;53.972;12.286;2022-12-07T03:16:09;33.15;;;11.60;;
64826;SDS011;51265;53.972;12.286;2022-12-07T03:21:41;55.83;;;14.05;;
64826;SDS011;51265;53.972;12.286;2022-12-07T03:24:12;37.70;;;12.38;;
64826;SDS011;51265;53.972;12.286;2022-12-07T03:26:42;60.40;;;14.88;;
64826;SDS011;51265;53.972;12.286;2022-12-07T03:29:26;53.70;;;13.95;;
64826;SDS011;51265;53.972;12.286;2022-12-07T03:32:12;72.85;;;16.45;;
64826;SDS011;51265;53.972;12.286;2022-12-07T03:34:50;76.18;;;14.85;;
64826;SDS011;51265;53.972;12.286;2022-12-07T03:37:23;85.15;;;15.77;;
64826;SDS011;51265;53.972;12.286;2022-12-07T03:40:00;58.67;;;13.93;;
64826;SDS011;51265;53.972;12.286;2022-12-07T03:42:32;81.78;;;17.23;;
64826;SDS011;51265;53.972;12.286;2022-12-07T03:45:00;82.30;;;17.95;;
64826;SDS011;51265;53.972;12.286;2022-12-07T03:47:47;99.63;;;17.25;;
64826;SDS011;51265;53.972;12.286;2022-12-07T03:53:02;64.85;;;17.17;;
64826;SDS011;51265;53.972;12.286;2022-12-07T03:58:05;75.40;;;16.08;;
64826;SDS011;51265;53.972;12.286;2022-12-07T04:00:34;68.00;;;16.33;;
64826;SDS011;51265;53.972;12.286;2022-12-07T04:03:01;57.13;;;16.75;;
64826;SDS011;51265;53.972;12.286;2022-12-07T04:05:26;65.05;;;17.63;;
64826;SDS011;51265;53.972;12.286;2022-12-07T04:07:53;63.95;;;15.52;;
64826;SDS011;51265;53.972;12.286;2022-12-07T04:10:19;49.97;;;15.60;;
64826;SDS011;51265;53.972;12.286;2022-12-07T04:12:45;58.80;;;17.60;;
64826;SDS011;51265;53.972;12.286;2022-12-07T04:15:11;47.53;;;14.85;;
64826;SDS011;51265;53.972;12.286;2022-12-07T04:17:37;54.25;;;15.73;;
64826;SDS011;51265;53.972;12.286;2022-12-07T04:20:04;81.03;;;17.70;;
64826;SDS011;51265;53.972;12.286;2022-12-07T04:22:31;75.07;;;18.02;;
64826;SDS011;51265;53.972;12.286;2022-12-07T04:24:57;77.55;;;17.70;;
64826;SDS011;51265;53.972;12.286;2022-12-07T04:27:33;59.25;;;15.55;;
64826;SDS011;51265;53.972;12.286;2022-12-07T04:29:59;57.25;;;16.13;;
64826;SDS011;51265;53.972;12.286;2022-12-07T04:32:25;75.00;;;17.55;;
64826;SDS011;51265;53.972;12.286;2022-12-07T04:34:51;54.65;;;15.80;;
64826;SDS011;51265;53.972;12.286;2022-12-07T04:37:17;48.50;;;14.13;;
64826;SDS011;51265;53.972;12.286;2022-12-07T04:39:43;47.30;;;16.05;;
64826;SDS011;51265;53.972;12.286;2022-12-07T04:42:10;55.97;;;16.42;;
64826;SDS011;51265;53.972;12.286;2022-12-07T04:44:38;77.60;;;18.15;;
64826;SDS011;51265;53.972;12.286;2022-12-07T04:47:04;99.57;;;17.05;;
64826;SDS011;51265;53.972;12.286;2022-12-07T04:49:30;70.57;;;16.70;;
64826;SDS011;51265;53.972;12.286;2022-12-07T04:51:56;63.15;;;16.17;;
64826;SDS011;51265;53.972;12.286;2022-12-07T04:54:22;43.65;;;14.95;;
64826;SDS011;51265;53.972;12.286;2022-12-07T04:56:48;44.83;;;14.02;;
64826;SDS011;51265;53.972;12.286;2022-12-07T04:59:14;59.90;;;15.43;;
64826;SDS011;51265;53.972;12.286;2022-12-07T05:01:42;55.22;;;15.45;;
64826;SDS011;51265;53.972;12.286;2022-12-07T05:04:09;45.85;;;14.77;;
64826;SDS011;51265;53.972;12.286;2022-12-07T05:06:35;48.10;;;15.30;;
64826;SDS011;51265;53.972;12.286;2022-12-07T05:09:01;41.10;;;14.48;;
64826;SDS011;51265;53.972;12.286;2022-12-07T05:11:27;66.18;;;16.00;;
64826;SDS011;51265;53.972;12.286;2022-12-07T05:16:40;43.38;;;14.60;;
64826;SDS011;51265;53.972;12.286;2022-12-07T05:19:06;45.10;;;13.35;;
64826;SDS011;51265;53.972;12.286;2022-12-07T05:21:33;41.15;;;14.20;;
64826;SDS011;51265;53.972;12.286;2022-12-07T05:23:59;43.92;;;14.10;;
64826;SDS011;51265;53.972;12.286;2022-12-07T05:26:24;38.83;;;13.90;;
64826;SDS011;51265;53.972;12.286;2022-12-07T05:28:51;52.20;;;15.15;;
64826;SDS011;51265;53.972;12.286;2022-12-07T05:31:18;48.55;;;15.60;;
64826;SDS011;51265;53.972;12.286;2022-12-07T05:33:44;52.03;;;15.40;;
64826;SDS011;51265;53.972;12.286;2022-12-07T05:36:10;67.63;;;15.95;;
64826;SDS011;51265;53.972;12.286;2022-12-07T05:38:35;56.70;;;16.98;;
64826;SDS011;51265;53.972;12.286;2022-12-07T05:41:02;64.65;;;17.20;;
64826;SDS011;51265;53.972;12.286;2022-12-07T05:43:29;58.88;;;14.98;;
64826;SDS011;51265;53.972;12.286;2022-12-07T05:45:55;62.00;;;17.48;;
64826;SDS011;51265;53.972;12.286;2022-12-07T05:48:21;60.15;;;16.15;;
64826;SDS011;51265;53.972;12.286;2022-12-07T05:50:48;53.50;;;15.80;;
64826;SDS011;51265;53.972;12.286;2022-12-07T05:53:15;63.13;;;15.73;;
64826;SDS011;51265;53.972;12.286;2022-12-07T05:55:41;69.10;;;17.25;;
64826;SDS011;51265;53.972;12.286;2022-12-07T05:58:06;77.93;;;17.88;;
64826;SDS011;51265;53.972;12.286;2022-12-07T06:00:53;68.30;;;17.48;;
64826;SDS011;51265;53.972;12.286;2022-12-07T06:03:20;71.07;;;18.70;;
64826;SDS011;51265;53.972;12.286;2022-12-07T06:05:46;74.15;;;18.85;;
64826;SDS011;51265;53.972;12.286;2022-12-07T06:08:11;70.70;;;18.80;;
64826;SDS011;51265;53.972;12.286;2022-12-07T06:10:37;95.78;;;20.30;;
64826;SDS011;51265;53.972;12.286;2022-12-07T06:13:03;89.90;;;19.88;;
64826;SDS011;51265;53.972;12.286;2022-12-07T06:15:29;88.20;;;20.35;;
64826;SDS011;51265;53.972;12.286;2022-12-07T06:17:55;81.50;;;19.10;;
64826;SDS011;51265;53.972;12.286;2022-12-07T06:20:20;90.53;;;20.15;;
64826;SDS011;51265;53.972;12.286;2022-12-07T06:22:46;94.43;;;20.52;;
64826;SDS011;51265;53.972;12.286;2022-12-07T06:25:12;101.20;;;20.38;;
64826;SDS011;51265;53.972;12.286;2022-12-07T06:27:38;104.68;;;20.92;;
64826;SDS011;51265;53.972;12.286;2022-12-07T06:30:04;103.22;;;20.48;;
64826;SDS011;51265;53.972;12.286;2022-12-07T06:32:32;116.28;;;22.58;;
64826;SDS011;51265;53.972;12.286;2022-12-07T06:34:59;114.78;;;22.25;;
64826;SDS011;51265;53.972;12.286;2022-12-07T06:37:25;151.35;;;22.10;;
64826;SDS011;51265;53.972;12.286;2022-12-07T06:39:51;126.32;;;22.55;;
64826;SDS011;51265;53.972;12.286;2022-12-07T06:42:17;109.05;;;22.30;;
64826;SDS011;51265;53.972;12.286;2022-12-07T06:44:43;99.53;;;21.88;;
64826;SDS011;51265;53.972;12.286;2022-12-07T06:47:09;103.10;;;20.75;;
64826;SDS011;51265;53.972;12.286;2022-12-07T06:49:35;108.78;;;22.65;;
64826;SDS011;51265;53.972;12.286;2022-12-07T06:52:00;116.07;;;20.50;;
64826;SDS011;51265;53.972;12.286;2022-12-07T06:54:26;130.43;;;23.25;;
64826;SDS011;51265;53.972;12.286;2022-12-07T06:56:53;115.80;;;22.50;;
64826;SDS011;51265;53.972;12.286;2022-12-07T06:59:18;147.05;;;23.90;;
64826;SDS011;51265;53.972;12.286;2022-12-07T07:01:44;70.63;;;18.35;;
64826;SDS011;51265;53.972;12.286;2022-12-07T07:04:10;66.63;;;18.52;;
64826;SDS011;51265;53.972;12.286;2022-12-07T07:06:36;101.13;;;20.25;;
64826;SDS011;51265;53.972;12.286;2022-12-07T07:09:02;259.02;;;25.25;;
64826;SDS011;51265;53.972;12.286;2022-12-07T07:11:28;252.82;;;25.77;;
64826;SDS011;51265;53.972;12.286;2022-12-07T07:13:54;359.17;;;31.27;;
64826;SDS011;51265;53.972;12.286;2022-12-07T07:16:22;256.08;;;27.52;;
64826;SDS011;51265;53.972;12.286;2022-12-07T07:18:49;139.85;;;21.60;;
64826;SDS011;51265;53.972;12.286;2022-12-07T07:21:15;104.30;;;19.35;;
64826;SDS011;51265;53.972;12.286;2022-12-07T07:23:41;100.45;;;18.83;;
64826;SDS011;51265;53.972;12.286;2022-12-07T07:26:07;93.18;;;20.25;;
64826;SDS011;51265;53.972;12.286;2022-12-07T07:28:32;64.13;;;17.02;;
64826;SDS011;51265;53.972;12.286;2022-12-07T07:30:58;90.40;;;17.77;;
64826;SDS011;51265;53.972;12.286;2022-12-07T07:33:24;68.95;;;16.58;;
64826;SDS011;51265;53.972;12.286;2022-12-07T07:35:50;65.78;;;17.23;;
64826;SDS011;51265;53.972;12.286;2022-12-07T07:38:15;60.28;;;16.70;;
64826;SDS011;51265;53.972;12.286;2022-12-07T07:40:41;63.80;;;14.98;;
64826;SDS011;51265;53.972;12.286;2022-12-07T07:43:07;66.10;;;16.95;;
64826;SDS011;51265;53.972;12.286;2022-12-07T07:45:33;50.80;;;14.95;;
64826;SDS011;51265;53.972;12.286;2022-12-07T07:47:58;58.70;;;15.30;;
64826;SDS011;51265;53.972;12.286;2022-12-07T07:50:25;51.15;;;13.20;;
64826;SDS011;51265;53.972;12.286;2022-12-07T07:52:51;49.50;;;13.98;;
64826;SDS011;51265;53.972;12.286;2022-12-07T07:55:17;51.65;;;14.15;;
64826;SDS011;51265;53.972;12.286;2022-12-07T07:57:43;41.63;;;13.32;;
64826;SDS011;51265;53.972;12.286;2022-12-07T08:00:13;51.10;;;13.98;;
64826;SDS011;51265;53.972;12.286;2022-12-07T08:02:41;43.40;;;11.93;;
64826;SDS011;51265;53.972;12.286;2022-12-07T08:05:08;47.17;;;13.23;;
64826;SDS011;51265;53.972;12.286;2022-12-07T08:07:35;42.67;;;13.60;;
64826;SDS011;51265;53.972;12.286;2022-12-07T08:10:01;42.30;;;12.88;;
64826;SDS011;51265;53.972;12.286;2022-12-07T08:12:27;34.38;;;11.65;;
64826;SDS011;51265;53.972;12.286;2022-12-07T08:14:53;41.22;;;12.75;;
64826;SDS011;51265;53.972;12.286;2022-12-07T08:17:19;45.25;;;12.05;;
64826;SDS011;51265;53.972;12.286;2022-12-07T08:19:45;47.55;;;12.88;;
64826;SDS011;51265;53.972;12.286;2022-12-07T08:22:11;36.60;;;11.63;;
64826;SDS011;51265;53.972;12.286;2022-12-07T08:24:36;42.45;;;12.43;;
64826;SDS011;51265;53.972;12.286;2022-12-07T08:27:02;35.53;;;11.27;;
64826;SDS011;51265;53.972;12.286;2022-12-07T08:29:29;42.40;;;12.23;;
64826;SDS011;51265;53.972;12.286;2022-12-07T08:31:55;31.48;;;11.82;;
64826;SDS011;51265;53.972;12.286;2022-12-07T08:34:21;34.97;;;11.00;;
64826;SDS011;51265;53.972;12.286;2022-12-07T08:36:47;29.60;;;11.05;;
64826;SDS011;51265;53.972;12.286;2022-12-07T08:39:13;36.70;;;11.27;;
64826;SDS011;51265;53.972;12.286;2022-12-07T08:41:39;33.58;;;11.20;;
64826;SDS011;51265;53.972;12.286;2022-12-07T08:44:05;31.98;;;11.75;;
64826;SDS011;51265;53.972;12.286;2022-12-07T08:46:33;29.33;;;10.27;;
64826;SDS011;51265;53.972;12.286;2022-12-07T08:49:04;26.83;;;10.48;;
64826;SDS011;51265;53.972;12.286;2022-12-07T08:51:34;30.10;;;10.25;;
64826;SDS011;51265;53.972;12.286;2022-12-07T08:54:01;27.92;;;9.77;;
64826;SDS011;51265;53.972;12.286;2022-12-07T08:56:33;31.52;;;10.32;;
64826;SDS011;51265;53.972;12.286;2022-12-07T08:58:59;30.80;;;10.63;;
64826;SDS011;51265;53.972;12.286;2022-12-07T09:01:25;19.13;;;7.93;;
64826;SDS011;51265;53.972;12.286;2022-12-07T09:03:52;15.68;;;6.50;;
64826;SDS011;51265;53.972;12.286;2022-12-07T09:06:18;13.02;;;5.70;;
64826;SDS011;51265;53.972;12.286;2022-12-07T09:08:45;17.05;;;7.35;;
64826;SDS011;51265;53.972;12.286;2022-12-07T09:11:13;20.55;;;8.23;;
64826;SDS011;51265;53.972;12.286;2022-12-07T09:13:39;19.75;;;8.52;;
64826;SDS011;51265;53.972;12.286;2022-12-07T09:16:05;22.05;;;8.93;;
64826;SDS011;51265;53.972;12.286;2022-12-07T09:18:31;31.00;;;10.18;;
64826;SDS011;51265;53.972;12.286;2022-12-07T09:20:56;29.40;;;9.30;;
64826;SDS011;51265;53.972;12.286;2022-12-07T09:23:23;24.80;;;10.77;;
64826;SDS011;51265;53.972;12.286;2022-12-07T09:25:48;25.90;;;10.02;;
64826;SDS011;51265;53.972;12.286;2022-12-07T09:28:14;29.70;;;9.40;;
64826;SDS011;51265;53.972;12.286;2022-12-07T09:30:47;30.95;;;9.93;;
64826;SDS011;51265;53.972;12.286;2022-12-07T09:33:13;29.48;;;10.25;;
64826;SDS011;51265;53.972;12.286;2022-12-07T09:35:46;40.72;;;12.15;;
64826;SDS011;51265;53.972;12.286;2022-12-07T09:38:16;36.63;;;12.57;;
64826;SDS011;51265;53.972;12.286;2022-12-07T09:40:43;30.48;;;12.27;;
64826;SDS011;51265;53.972;12.286;2022-12-07T09:43:19;45.30;;;14.30;;
64826;SDS011;51265;53.972;12.286;2022-12-07T09:45:48;35.08;;;11.95;;
64826;SDS011;51265;53.972;12.286;2022-12-07T09:48:20;37.78;;;12.32;;
64826;SDS011;51265;53.972;12.286;2022-12-07T09:50:48;35.55;;;12.93;;
64826;SDS011;51265;53.972;12.286;2022-12-07T09:53:34;36.88;;;13.02;;
64826;SDS011;51265;53.972;12.286;2022-12-07T09:56:03;34.58;;;13.57;;
64826;SDS011;51265;53.972;12.286;2022-12-07T09:58:30;38.25;;;13.50;;
64826;SDS011;51265;53.972;12.286;2022-12-07T10:01:05;36.80;;;13.30;;
64826;SDS011;51265;53.972;12.286;2022-12-07T10:03:38;37.50;;;13.38;;
64826;SDS011;51265;53.972;12.286;2022-12-07T10:06:09;42.22;;;14.98;;
64826;SDS011;51265;53.972;12.286;2022-12-07T10:08:38;39.85;;;13.77;;
64826;SDS011;51265;53.972;12.286;2022-12-07T10:11:03;39.63;;;14.18;;
64826;SDS011;51265;53.972;12.286;2022-12-07T10:16:06;37.80;;;13.40;;
64826;SDS011;51265;53.972;12.286;2022-12-07T10:18:53;39.50;;;14.05;;
64826;SDS011;51265;53.972;12.286;2022-12-07T10:21:20;37.80;;;12.65;;
64826;SDS011;51265;53.972;12.286;2022-12-07T10:26:31;33.10;;;11.90;;
64826;SDS011;51265;53.972;12.286;2022-12-07T10:29:01;41.80;;;13.60;;
64826;SDS011;51265;53.972;12.286;2022-12-07T10:32:23;38.58;;;12.30;;
64826;SDS011;51265;53.972;12.286;2022-12-07T10:37:47;28.50;;;10.95;;
64826;SDS011;51265;53.972;12.286;2022-12-07T10:43:05;32.13;;;11.00;;
64826;SDS011;51265;53.972;12.286;2022-12-07T10:48:39;35.10;;;10.48;;
64826;SDS011;51265;53.972;12.286;2022-12-07T10:56:47;32.25;;;9.65;;
64826;SDS011;51265;53.972;12.286;2022-12-07T11:23:26;22.02;;;7.70;;
64826;SDS011;51265;53.972;12.286;2022-12-07T11:29:06;20.52;;;7.93;;
64826;SDS011;51265;53.972;12.286;2022-12-07T11:31:41;20.58;;;8.35;;
64826;SDS011;51265;53.972;12.286;2022-12-07T11:37:23;18.42;;;6.13;;
64826;SDS011;51265;53.972;12.286;2022-12-07T11:40:01;17.27;;;5.30;;
64826;SDS011;51265;53.972;12.286;2022-12-07T11:42:41;15.50;;;4.35;;
64826;SDS011;51265;53.972;12.286;2022-12-07T11:45:14;13.18;;;3.40;;
64826;SDS011;51265;53.972;12.286;2022-12-07T11:47:51;7.68;;;2.35;;
64826;SDS011;51265;53.972;12.286;2022-12-07T11:50:26;7.20;;;1.45;;
64826;SDS011;51265;53.972;12.286;2022-12-07T11:53:00;7.43;;;1.02;;
64826;SDS011;51265;53.972;12.286;2022-12-07T11:57:58;6.90;;;0.82;;
64826;SDS011;51265;53.972;12.286;2022-12-07T12:00:29;2.80;;;0.80;;
64826;SDS011;51265;53.972;12.286;2022-12-07T12:05:27;6.25;;;1.00;;
64826;SDS011;51265;53.972;12.286;2022-12-07T12:07:57;3.10;;;0.57;;
64826;SDS011;51265;53.972;12.286;2022-12-07T12:16:13;5.82;;;0.63;;
64826;SDS011;51265;53.972;12.286;2022-12-07T12:19:05;3.17;;;0.73;;
64826;SDS011;51265;53.972;12.286;2022-12-07T12:21:43;7.72;;;0.77;;
64826;SDS011;51265;53.972;12.286;2022-12-07T12:24:16;3.40;;;0.77;;
64826;SDS011;51265;53.972;12.286;2022-12-07T12:26:50;3.47;;;0.63;;
64826;SDS011;51265;53.972;12.286;2022-12-07T12:29:32;6.03;;;1.20;;
64826;SDS011;51265;53.972;12.286;2022-12-07T12:32:06;4.03;;;1.38;;
64826;SDS011;51265;53.972;12.286;2022-12-07T12:37:48;7.35;;;1.15;;
64826;SDS011;51265;53.972;12.286;2022-12-07T12:42:49;5.35;;;0.88;;
64826;SDS011;51265;53.972;12.286;2022-12-07T12:47:53;7.03;;;1.25;;
64826;SDS011;51265;53.972;12.286;2022-12-07T12:50:35;6.15;;;1.50;;
64826;SDS011;51265;53.972;12.286;2022-12-07T13:00:48;7.38;;;1.10;;
64826;SDS011;51265;53.972;12.286;2022-12-07T13:06:20;4.18;;;0.85;;
64826;SDS011;51265;53.972;12.286;2022-12-07T13:09:01;8.57;;;0.90;;
64826;SDS011;51265;53.972;12.286;2022-12-07T13:11:29;4.68;;;0.75;;
64826;SDS011;51265;53.972;12.286;2022-12-07T13:17:12;5.07;;;1.00;;
64826;SDS011;51265;53.972;12.286;2022-12-07T13:19:58;3.67;;;0.80;;
64826;SDS011;51265;53.972;12.286;2022-12-07T13:24:59;2.80;;;0.60;;
64826;SDS011;51265;53.972;12.286;2022-12-07T13:27:33;5.25;;;0.80;;
64826;SDS011;51265;53.972;12.286;2022-12-07T13:30:02;3.85;;;0.90;;
64826;SDS011;51265;53.972;12.286;2022-12-07T13:32:40;10.10;;;0.95;;
64826;SDS011;51265;53.972;12.286;2022-12-07T13:37:54;3.80;;;0.60;;
64826;SDS011;51265;53.972;12.286;2022-12-07T13:40:21;7.13;;;0.85;;
64826;SDS011;51265;53.972;12.286;2022-12-07T13:42:47;4.85;;;1.05;;
64826;SDS011;51265;53.972;12.286;2022-12-07T13:45:24;4.72;;;0.70;;
64826;SDS011;51265;53.972;12.286;2022-12-07T13:48:14;6.32;;;0.90;;
64826;SDS011;51265;53.972;12.286;2022-12-07T13:50:56;5.78;;;0.90;;
64826;SDS011;51265;53.972;12.286;2022-12-07T13:53:24;4.38;;;0.57;;
64826;SDS011;51265;53.972;12.286;2022-12-07T13:55:50;3.92;;;0.70;;
64826;SDS011;51265;53.972;12.286;2022-12-07T13:58:16;11.10;;;1.05;;
64826;SDS011;51265;53.972;12.286;2022-12-07T14:00:42;3.90;;;0.55;;
64826;SDS011;51265;53.972;12.286;2022-12-07T14:05:38;7.90;;;0.80;;
64826;SDS011;51265;53.972;12.286;2022-12-07T14:08:21;3.00;;;1.02;;
64826;SDS011;51265;53.972;12.286;2022-12-07T14:18:47;5.30;;;0.75;;
64826;SDS011;51265;53.972;12.286;2022-12-07T14:21:14;2.15;;;0.35;;
64826;SDS011;51265;53.972;12.286;2022-12-07T14:23:43;2.03;;;0.50;;
64826;SDS011;51265;53.972;12.286;2022-12-07T14:28:39;3.63;;;0.30;;
64826;SDS011;51265;53.972;12.286;2022-12-07T14:31:17;2.83;;;0.40;;
64826;SDS011;51265;53.972;12.286;2022-12-07T14:33:45;1.05;;;0.38;;
64826;SDS011;51265;53.972;12.286;2022-12-07T14:36:12;1.80;;;0.40;;
64826;SDS011;51265;53.972;12.286;2022-12-07T14:38:39;3.33;;;0.55;;
64826;SDS011;51265;53.972;12.286;2022-12-07T14:41:06;1.10;;;0.50;;
64826;SDS011;51265;53.972;12.286;2022-12-07T14:43:57;3.20;;;0.70;;
64826;SDS011;51265;53.972;12.286;2022-12-07T14:46:23;2.75;;;0.43;;
64826;SDS011;51265;53.972;12.286;2022-12-07T14:48:49;1.70;;;0.60;;
64826;SDS011;51265;53.972;12.286;2022-12-07T14:51:15;3.10;;;0.63;;
64826;SDS011;51265;53.972;12.286;2022-12-07T14:53:45;1.85;;;0.60;;
64826;SDS011;51265;53.972;12.286;2022-12-07T14:56:14;5.78;;;0.75;;
64826;SDS011;51265;53.972;12.286;2022-12-07T14:58:40;3.42;;;0.68;;
64826;SDS011;51265;53.972;12.286;2022-12-07T15:01:06;2.13;;;0.70;;
64826;SDS011;51265;53.972;12.286;2022-12-07T15:03:32;7.70;;;0.77;;
64826;SDS011;51265;53.972;12.286;2022-12-07T15:06:00;1.23;;;0.63;;
64826;SDS011;51265;53.972;12.286;2022-12-07T15:08:26;2.65;;;0.55;;
64826;SDS011;51265;53.972;12.286;2022-12-07T15:10:52;2.15;;;0.70;;
64826;SDS011;51265;53.972;12.286;2022-12-07T15:13:18;1.50;;;0.60;;
64826;SDS011;51265;53.972;12.286;2022-12-07T15:16:02;5.80;;;0.70;;
64826;SDS011;51265;53.972;12.286;2022-12-07T15:18:28;2.22;;;0.50;;
64826;SDS011;51265;53.972;12.286;2022-12-07T15:20:54;3.40;;;0.50;;
64826;SDS011;51265;53.972;12.286;2022-12-07T15:23:20;0.85;;;0.28;;
64826;SDS011;51265;53.972;12.286;2022-12-07T15:25:46;0.77;;;0.43;;
64826;SDS011;51265;53.972;12.286;2022-12-07T15:28:14;1.65;;;0.50;;
64826;SDS011;51265;53.972;12.286;2022-12-07T15:30:40;0.95;;;0.40;;
64826;SDS011;51265;53.972;12.286;2022-12-07T15:33:09;2.83;;;0.45;;
64826;SDS011;51265;53.972;12.286;2022-12-07T15:35:39;1.15;;;0.20;;
64826;SDS011;51265;53.972;12.286;2022-12-07T15:38:05;2.00;;;0.40;;
64826;SDS011;51265;53.972;12.286;2022-12-07T15:40:31;1.17;;;0.20;;
64826;SDS011;51265;53.972;12.286;2022-12-07T15:42:57;1.20;;;0.22;;
64826;SDS011;51265;53.972;12.286;2022-12-07T15:45:23;0.90;;;0.30;;
64826;SDS011;51265;53.972;12.286;2022-12-07T15:47:48;0.65;;;0.38;;
64826;SDS011;51265;53.972;12.286;2022-12-07T15:50:15;0.98;;;0.40;;
64826;SDS011;51265;53.972;12.286;2022-12-07T15:52:42;1.55;;;0.50;;
64826;SDS011;51265;53.972;12.286;2022-12-07T15:55:11;1.52;;;0.60;;
64826;SDS011;51265;53.972;12.286;2022-12-07T15:57:37;2.45;;;0.40;;
64826;SDS011;51265;53.972;12.286;2022-12-07T16:00:05;0.82;;;0.38;;
64826;SDS011;51265;53.972;12.286;2022-12-07T16:02:32;2.22;;;0.40;;
64826;SDS011;51265;53.972;12.286;2022-12-07T16:04:58;1.00;;;0.50;;
64826;SDS011;51265;53.972;12.286;2022-12-07T16:07:24;4.22;;;0.68;;
64826;SDS011;51265;53.972;12.286;2022-12-07T16:09:50;0.68;;;0.30;;
64826;SDS011;51265;53.972;12.286;2022-12-07T16:12:16;3.83;;;0.77;;
64826;SDS011;51265;53.972;12.286;2022-12-07T16:14:42;4.47;;;0.80;;
64826;SDS011;51265;53.972;12.286;2022-12-07T16:17:08;2.70;;;0.95;;
64826;SDS011;51265;53.972;12.286;2022-12-07T16:19:35;5.28;;;0.82;;
64826;SDS011;51265;53.972;12.286;2022-12-07T16:22:02;5.85;;;0.70;;
64826;SDS011;51265;53.972;12.286;2022-12-07T16:24:29;4.85;;;0.85;;
64826;SDS011;51265;53.972;12.286;2022-12-07T16:26:55;4.63;;;0.90;;
64826;SDS011;51265;53.972;12.286;2022-12-07T16:29:22;29.77;;;2.33;;
64826;SDS011;51265;53.972;12.286;2022-12-07T16:31:48;3.13;;;0.60;;
64826;SDS011;51265;53.972;12.286;2022-12-07T16:34:16;1.13;;;0.50;;
64826;SDS011;51265;53.972;12.286;2022-12-07T16:36:42;0.95;;;0.47;;
64826;SDS011;51265;53.972;12.286;2022-12-07T16:39:08;4.50;;;0.70;;
64826;SDS011;51265;53.972;12.286;2022-12-07T16:41:34;1.73;;;0.70;;
64826;SDS011;51265;53.972;12.286;2022-12-07T16:44:06;1.20;;;0.60;;
64826;SDS011;51265;53.972;12.286;2022-12-07T16:46:35;2.85;;;0.63;;
64826;SDS011;51265;53.972;12.286;2022-12-07T16:49:01;1.98;;;0.70;;